createdAt,value
2019-04-14T00:00:08.004Z,42.60
2019-04-14T00:01:08.625Z,42.10
2019-04-14T00:02:07.951Z,41.70
2019-04-14T00:03:08.663Z,42.10
2019-04-14T00:04:07.893Z,41.50
2019-04-14T00:05:08.236Z,42.10
2019-04-14T00:06:09.022Z,42.20
2019-04-14T00:07:08.014Z,41.70
2019-04-14T00:08:08.785Z,42.00
2019-04-14T00:09:07.752Z,40.90
2019-04-14T00:10:07.724Z,41.20
2019-04-14T00:11:08.313Z,41.50
2019-04-14T00:12:09.023Z,41.10
2019-04-14T00:13:08.865Z,40.90
2019-04-14T00:14:07.614Z,42.00
2019-04-14T00:15:19.287Z,40.40
2019-04-14T00:16:07.554Z,41.70
2019-04-14T00:17:08.498Z,40.00
2019-04-14T00:18:07.560Z,40.70
2019-04-14T00:19:08.676Z,41.50
2019-04-14T00:20:07.449Z,39.90
2019-04-14T00:21:08.650Z,41.70
2019-04-14T00:22:07.388Z,41.50
2019-04-14T00:23:08.656Z,40.90
2019-04-14T00:24:07.403Z,40.70
2019-04-14T00:25:08.563Z,41.00
2019-04-14T00:26:07.291Z,40.80
2019-04-14T00:27:08.445Z,40.00
2019-04-14T00:28:07.398Z,40.20
2019-04-14T00:29:07.192Z,39.90
2019-04-14T00:30:07.597Z,39.50
2019-04-14T00:31:07.134Z,40.10
2019-04-14T00:32:07.364Z,39.70
2019-04-14T00:33:08.373Z,40.20
2019-04-14T00:34:07.303Z,40.30
2019-04-14T00:35:08.147Z,39.50
2019-04-14T00:36:06.995Z,39.30
2019-04-14T00:37:07.745Z,40.20
2019-04-14T00:38:06.939Z,39.80
2019-04-14T00:39:07.489Z,39.50
2019-04-14T00:40:06.886Z,40.60
2019-04-14T00:41:07.177Z,38.90
2019-04-14T00:42:08.176Z,38.80
2019-04-14T00:43:07.009Z,39.40
2019-04-14T00:44:07.822Z,39.50
2019-04-14T00:45:06.988Z,39.20
2019-04-14T00:46:07.869Z,38.50
2019-04-14T00:47:07.106Z,39.80
2019-04-14T00:48:11.818Z,40.50
2019-04-14T00:49:07.066Z,39.60
2019-04-14T00:50:07.893Z,40.30
2019-04-14T00:51:06.969Z,39.30
2019-04-14T00:52:07.862Z,39.00
2019-04-14T00:53:07.652Z,38.90
2019-04-14T00:54:06.704Z,39.80
2019-04-14T00:55:07.563Z,39.10
2019-04-14T00:56:06.444Z,39.80
2019-04-14T00:57:07.312Z,40.30
2019-04-14T00:58:06.381Z,39.80
2019-04-14T00:59:07.115Z,40.80
2019-04-14T01:00:06.347Z,39.20
2019-04-14T01:01:06.959Z,39.60
2019-04-14T01:02:06.288Z,39.90
2019-04-14T01:03:06.910Z,40.00
2019-04-14T01:04:06.220Z,39.80
2019-04-14T01:05:06.619Z,40.30
2019-04-14T01:06:07.530Z,39.00
2019-04-14T01:07:06.526Z,40.60
2019-04-14T01:08:07.272Z,41.10
2019-04-14T01:09:06.414Z,39.70
2019-04-14T01:10:06.098Z,40.30
2019-04-14T01:11:07.309Z,40.50
2019-04-14T01:12:06.107Z,40.00
2019-04-14T01:13:09.338Z,39.70
2019-04-14T01:14:05.950Z,40.40
2019-04-14T01:15:07.095Z,40.60
2019-04-14T01:16:13.225Z,40.30
2019-04-14T01:17:06.926Z,41.10
2019-04-14T01:18:05.850Z,40.70
2019-04-14T01:19:06.811Z,40.20
2019-04-14T01:20:05.766Z,39.40
2019-04-14T01:21:06.689Z,41.50
2019-04-14T01:22:05.713Z,40.40
2019-04-14T01:23:06.337Z,39.70
2019-04-14T01:24:05.647Z,40.40
2019-04-14T01:25:06.417Z,39.80
2019-04-14T01:26:05.593Z,40.40
2019-04-14T01:27:06.062Z,40.20
2019-04-14T01:28:06.701Z,40.40
2019-04-14T01:29:05.793Z,39.80
2019-04-14T01:30:06.557Z,41.60
2019-04-14T01:31:05.607Z,40.10
2019-04-14T01:32:06.509Z,40.60
2019-04-14T01:33:05.512Z,40.00
2019-04-14T01:34:06.336Z,39.90
2019-04-14T01:35:05.413Z,40.20
2019-04-14T01:36:06.093Z,39.10
2019-04-14T01:37:05.280Z,40.30
2019-04-14T01:38:05.882Z,39.80
2019-04-14T01:39:05.227Z,40.50
2019-04-14T01:40:05.331Z,39.60
2019-04-14T01:41:06.322Z,39.70
2019-04-14T01:42:05.139Z,39.60
2019-04-14T01:43:05.931Z,38.80
2019-04-14T01:44:05.085Z,39.50
2019-04-14T01:45:05.663Z,38.50
2019-04-14T01:46:11.627Z,39.10
2019-04-14T01:47:05.270Z,39.30
2019-04-14T01:48:05.982Z,37.70
2019-04-14T01:49:05.092Z,39.00
2019-04-14T01:50:05.913Z,39.00
2019-04-14T01:51:04.950Z,38.20
2019-04-14T01:52:05.699Z,38.60
2019-04-14T01:53:05.387Z,38.50
2019-04-14T01:54:05.851Z,37.20
2019-04-14T01:55:04.825Z,37.60
2019-04-14T01:56:05.626Z,37.20
2019-04-14T01:57:04.720Z,36.90
2019-04-14T01:58:05.376Z,39.40
2019-04-14T01:59:04.663Z,38.10
2019-04-14T02:00:05.357Z,38.30
2019-04-14T02:01:04.604Z,38.60
2019-04-14T02:02:05.115Z,36.50
2019-04-14T02:03:04.540Z,37.00
2019-04-14T02:04:04.949Z,37.50
2019-04-14T02:05:04.503Z,36.50
2019-04-14T02:06:04.795Z,37.50
2019-04-14T02:07:04.429Z,37.00
2019-04-14T02:08:04.512Z,37.60
2019-04-14T02:09:05.359Z,36.10
2019-04-14T02:10:04.337Z,36.20
2019-04-14T02:11:05.230Z,35.90
2019-04-14T02:12:04.286Z,34.90
2019-04-14T02:13:04.991Z,36.00
2019-04-14T02:14:04.229Z,35.90
2019-04-14T02:15:11.394Z,36.20
2019-04-14T02:17:00.534Z,35.10
2019-04-14T02:17:57.036Z,36.30
2019-04-14T02:19:50.291Z,36.10
2019-04-14T02:20:51.056Z,36.30
2019-04-14T02:21:49.995Z,35.10
2019-04-14T02:22:50.630Z,35.60
2019-04-14T02:23:49.898Z,35.10
2019-04-14T02:24:50.306Z,35.60
2019-04-14T02:25:49.738Z,36.40
2019-04-14T02:26:50.283Z,35.00
2019-04-14T02:27:49.679Z,35.10
2019-04-14T02:28:50.414Z,34.70
2019-04-14T02:29:49.624Z,34.40
2019-04-14T02:31:00.104Z,35.00
2019-04-14T02:32:17.535Z,35.90
2019-04-14T02:33:23.604Z,35.40
2019-04-14T02:34:17.479Z,35.70
2019-04-14T02:36:27.365Z,34.90
2019-04-14T02:38:23.188Z,34.80
2019-04-14T02:40:18.122Z,34.90
2019-04-14T02:41:18.731Z,34.60
2019-04-14T02:45:24.572Z,33.70
2019-04-14T02:46:14.989Z,34.30
2019-04-14T02:47:38.883Z,33.20
2019-04-14T02:48:31.506Z,34.00
2019-04-14T02:49:11.186Z,33.30
2019-04-14T02:50:10.911Z,33.60
2019-04-14T02:51:19.389Z,33.40
2019-04-14T02:53:18.502Z,32.40
2019-04-14T02:54:32.960Z,33.10
2019-04-14T02:55:08.776Z,32.40
2019-04-14T02:56:21.934Z,33.30
2019-04-14T02:57:20.502Z,33.60
2019-04-14T02:58:20.383Z,34.40
2019-04-14T02:59:11.698Z,33.20
2019-04-14T03:00:16.744Z,35.30
2019-04-14T03:01:24.095Z,33.70
2019-04-14T03:02:22.890Z,33.00
2019-04-14T03:03:16.881Z,33.90
2019-04-14T03:04:14.675Z,32.70
2019-04-14T03:05:09.739Z,33.50
2019-04-14T03:06:20.392Z,34.10
2019-04-14T03:07:19.043Z,33.50
2019-04-14T03:08:17.189Z,33.20
2019-04-14T03:09:24.348Z,33.00
2019-04-14T03:10:20.393Z,31.90
2019-04-14T03:12:19.086Z,32.70
2019-04-14T03:13:21.075Z,31.70
2019-04-14T03:14:19.757Z,31.70
2019-04-14T03:15:20.077Z,32.00
2019-04-14T03:16:21.722Z,32.10
2019-04-14T03:17:24.818Z,31.80
2019-04-14T03:19:16.509Z,31.40
2019-04-14T03:20:20.128Z,32.00
2019-04-14T03:21:19.498Z,30.80
2019-04-14T03:22:25.519Z,31.30
2019-04-14T03:23:18.938Z,32.10
2019-04-14T03:24:13.132Z,32.60
2019-04-14T03:25:03.070Z,30.30
2019-04-14T03:26:15.623Z,31.00
2019-04-14T03:27:13.551Z,31.50
2019-04-14T03:28:06.984Z,30.10
2019-04-14T03:29:19.209Z,30.90
2019-04-14T03:30:39.287Z,31.20
2019-04-14T03:31:47.260Z,30.70
2019-04-14T03:32:26.529Z,29.90
2019-04-14T03:33:43.503Z,29.90
2019-04-14T03:35:35.059Z,29.80
2019-04-14T03:36:44.134Z,29.70
2019-04-14T03:38:18.916Z,29.50
2019-04-14T03:39:33.476Z,29.70
2019-04-14T03:40:09.980Z,29.10
2019-04-14T03:41:17.528Z,29.80
2019-04-14T03:43:18.705Z,28.90
2019-04-14T03:44:37.790Z,29.30
2019-04-14T03:45:20.690Z,28.00
2019-04-14T03:47:13.802Z,28.60
2019-04-14T03:49:22.032Z,29.00
2019-04-14T03:50:13.686Z,28.50
2019-04-14T03:51:18.922Z,28.00
2019-04-14T03:52:13.080Z,27.30
2019-04-14T03:53:15.868Z,27.40
2019-04-14T03:54:23.590Z,27.10
2019-04-14T03:55:01.232Z,27.50
2019-04-14T03:55:54.537Z,27.50
2019-04-14T03:56:47.131Z,26.90
2019-04-14T03:57:47.651Z,27.50
2019-04-14T03:58:47.071Z,26.90
2019-04-14T03:59:47.798Z,26.60
2019-04-14T04:00:47.026Z,26.80
2019-04-14T04:01:47.883Z,26.60
2019-04-14T04:02:46.959Z,27.50
2019-04-14T04:03:47.857Z,26.40
2019-04-14T04:04:46.903Z,26.50
2019-04-14T04:05:47.862Z,25.80
2019-04-14T04:06:46.845Z,26.00
2019-04-14T04:07:47.478Z,25.70
2019-04-14T04:08:46.785Z,25.00
2019-04-14T04:09:47.536Z,26.60
2019-04-14T04:10:46.733Z,25.00
2019-04-14T04:11:47.627Z,25.10
2019-04-14T04:12:46.672Z,25.40
2019-04-14T04:13:47.689Z,24.80
2019-04-14T04:14:46.615Z,25.30
2019-04-14T04:15:47.582Z,26.10
2019-04-14T04:16:46.557Z,24.70
2019-04-14T04:17:47.288Z,24.70
2019-04-14T04:18:56.469Z,25.20
2019-04-14T04:19:46.981Z,24.70
2019-04-14T04:20:47.648Z,24.70
2019-04-14T04:21:46.640Z,25.80
2019-04-14T04:22:47.572Z,25.10
2019-04-14T04:23:46.822Z,24.60
2019-04-14T04:24:47.504Z,25.30
2019-04-14T04:25:46.578Z,25.20
2019-04-14T04:26:47.222Z,25.10
2019-04-14T04:27:46.248Z,24.00
2019-04-14T04:28:47.157Z,26.60
2019-04-14T04:29:46.308Z,25.60
2019-04-14T04:30:47.002Z,24.60
2019-04-14T04:31:46.218Z,25.00
2019-04-14T04:32:46.904Z,24.90
2019-04-14T04:33:46.072Z,24.40
2019-04-14T04:34:46.645Z,24.90
2019-04-14T04:35:46.009Z,25.90
2019-04-14T04:36:46.359Z,24.50
2019-04-14T04:37:45.955Z,24.60
2019-04-14T04:38:46.321Z,24.10
2019-04-14T04:39:45.898Z,24.20
2019-04-14T04:40:46.129Z,23.80
2019-04-14T04:41:45.843Z,24.00
2019-04-14T04:42:45.896Z,24.10
2019-04-14T04:43:45.783Z,24.00
2019-04-14T04:44:46.357Z,24.40
2019-04-14T04:45:45.730Z,24.90
2019-04-14T04:46:45.993Z,24.10
2019-04-14T04:47:46.915Z,23.90
2019-04-14T04:48:57.975Z,23.80
2019-04-14T04:49:46.773Z,23.70
2019-04-14T04:50:45.593Z,24.10
2019-04-14T04:51:46.555Z,23.30
2019-04-14T04:52:45.532Z,24.30
2019-04-14T04:53:46.215Z,22.90
2019-04-14T04:54:45.475Z,23.80
2019-04-14T04:55:46.074Z,23.30
2019-04-14T04:56:45.407Z,22.70
2019-04-14T04:57:45.985Z,24.00
2019-04-14T04:58:45.649Z,24.20
2019-04-14T04:59:45.373Z,23.80
2019-04-14T05:00:47.356Z,23.90
2019-04-14T05:01:45.270Z,23.70
2019-04-14T05:02:46.068Z,23.60
2019-04-14T05:03:45.215Z,23.90
2019-04-14T05:04:46.029Z,22.80
2019-04-14T05:05:45.155Z,23.70
2019-04-14T05:06:45.911Z,23.10
2019-04-14T05:07:45.115Z,23.50
2019-04-14T05:08:45.556Z,23.60
2019-04-14T05:09:45.053Z,22.90
2019-04-14T05:10:45.692Z,22.70
2019-04-14T05:11:44.985Z,23.10
2019-04-14T05:12:45.680Z,23.30
2019-04-14T05:13:44.927Z,22.90
2019-04-14T05:14:45.590Z,21.80
2019-04-14T05:15:44.872Z,23.10
2019-04-14T05:16:46.048Z,22.70
2019-04-14T05:17:45.278Z,22.50
2019-04-14T05:18:44.782Z,22.80
2019-04-14T05:19:45.493Z,23.70
2019-04-14T05:20:44.738Z,23.00
2019-04-14T05:21:45.204Z,22.60
2019-04-14T05:22:44.668Z,23.80
2019-04-14T05:23:45.328Z,22.40
2019-04-14T05:24:44.619Z,23.00
2019-04-14T05:25:45.228Z,22.80
2019-04-14T05:26:44.559Z,22.90
2019-04-14T05:27:45.222Z,22.20
2019-04-14T05:28:44.505Z,22.20
2019-04-14T05:29:45.099Z,21.80
2019-04-14T05:30:45.725Z,21.60
2019-04-14T05:31:44.732Z,22.60
2019-04-14T05:32:45.446Z,22.40
2019-04-14T05:33:44.750Z,22.60
2019-04-14T05:34:45.405Z,21.70
2019-04-14T05:35:44.591Z,21.50
2019-04-14T05:36:45.328Z,21.50
2019-04-14T05:37:44.440Z,21.90
2019-04-14T05:38:45.005Z,20.70
2019-04-14T05:39:44.209Z,21.90
2019-04-14T05:40:45.053Z,21.10
2019-04-14T05:41:56.738Z,21.50
2019-04-14T05:42:45.067Z,21.80
2019-04-14T05:43:51.415Z,21.10
2019-04-14T05:44:44.802Z,20.90
2019-04-14T05:45:44.028Z,20.90
2019-04-14T05:46:44.648Z,20.80
2019-04-14T05:47:43.970Z,21.20
2019-04-14T05:48:44.677Z,20.90
2019-04-14T05:49:48.257Z,21.10
2019-04-14T05:50:44.377Z,20.40
2019-04-14T05:51:43.860Z,20.90
2019-04-14T05:52:44.714Z,21.00
2019-04-14T05:53:43.921Z,20.70
2019-04-14T05:54:44.731Z,20.10
2019-04-14T05:55:43.854Z,21.00
2019-04-14T05:56:44.756Z,20.70
2019-04-14T05:57:43.830Z,20.70
2019-04-14T05:58:44.634Z,20.30
2019-04-14T05:59:44.055Z,19.60
2019-04-14T06:00:43.779Z,19.50
2019-04-14T06:01:44.308Z,19.70
2019-04-14T06:02:44.121Z,19.40
2019-04-14T06:03:43.536Z,18.50
2019-04-14T06:04:43.967Z,18.80
2019-04-14T06:05:43.473Z,18.80
2019-04-14T06:06:43.454Z,18.80
2019-04-14T06:07:43.418Z,18.90
2019-04-14T06:08:43.402Z,18.60
2019-04-14T06:09:43.372Z,18.30
2019-04-14T06:10:43.344Z,18.90
2019-04-14T06:11:43.322Z,18.00
2019-04-14T06:12:43.291Z,18.00
2019-04-14T06:13:43.268Z,18.40
2019-04-14T06:14:43.244Z,17.10
2019-04-14T06:15:43.217Z,16.80
2019-04-14T06:16:43.190Z,18.10
2019-04-14T06:17:43.167Z,17.10
2019-04-14T06:18:43.144Z,17.70
2019-04-14T06:19:50.293Z,17.40
2019-04-14T06:21:43.394Z,17.50
2019-04-14T06:22:35.963Z,16.90
2019-04-14T06:24:29.862Z,17.00
2019-04-14T06:25:29.832Z,17.60
2019-04-14T06:27:22.729Z,16.70
2019-04-14T06:28:22.676Z,16.10
2019-04-14T06:30:15.582Z,16.30
2019-04-14T06:31:15.526Z,17.00
2019-04-14T06:33:08.406Z,16.00
2019-04-14T06:34:08.379Z,16.00
2019-04-14T06:35:08.351Z,16.60
2019-04-14T06:36:08.326Z,15.70
2019-04-14T06:37:08.305Z,15.80
2019-04-14T06:38:08.285Z,16.20
2019-04-14T06:39:08.258Z,16.30
2019-04-14T06:40:08.230Z,15.20
2019-04-14T06:41:08.211Z,15.90
2019-04-14T06:42:08.189Z,15.40
2019-04-14T06:43:08.162Z,16.80
2019-04-14T06:44:08.135Z,16.70
2019-04-14T06:45:08.114Z,15.80
2019-04-14T06:46:08.088Z,16.20
2019-04-14T06:47:08.076Z,15.90
2019-04-14T06:48:08.042Z,15.50
2019-04-14T06:49:08.021Z,15.50
2019-04-14T06:50:07.997Z,15.80
2019-04-14T06:51:07.975Z,15.50
2019-04-14T06:52:07.950Z,16.20
2019-04-14T06:53:07.927Z,15.40
2019-04-14T06:54:07.904Z,15.90
2019-04-14T06:55:07.882Z,15.90
2019-04-14T06:56:07.859Z,15.40
2019-04-14T06:57:07.841Z,14.80
2019-04-14T06:58:07.814Z,15.20
2019-04-14T06:59:07.793Z,15.80
2019-04-14T07:00:07.770Z,15.00
2019-04-14T07:01:07.747Z,14.90
2019-04-14T07:02:08.698Z,15.10
2019-04-14T07:03:07.703Z,14.80
2019-04-14T07:04:07.683Z,15.40
2019-04-14T07:05:07.661Z,15.30
2019-04-14T07:06:07.639Z,15.60
2019-04-14T07:07:07.619Z,14.60
2019-04-14T07:08:07.597Z,14.70
2019-04-14T07:09:07.577Z,14.30
2019-04-14T07:10:07.558Z,14.00
2019-04-14T07:11:07.537Z,14.30
2019-04-14T07:12:07.602Z,15.40
2019-04-14T07:13:07.558Z,15.50
2019-04-14T07:14:07.480Z,14.50
2019-04-14T07:15:07.458Z,14.10
2019-04-14T07:16:07.443Z,14.50
2019-04-14T07:17:07.422Z,14.20
2019-04-14T07:18:07.403Z,14.80
2019-04-14T07:19:07.382Z,14.20
2019-04-14T07:20:07.363Z,13.70
2019-04-14T07:21:07.342Z,14.40
2019-04-14T07:22:07.326Z,14.60
2019-04-14T07:23:07.307Z,14.20
2019-04-14T07:24:07.288Z,14.20
2019-04-14T07:25:07.268Z,13.10
2019-04-14T07:26:07.250Z,13.90
2019-04-14T07:27:07.240Z,14.60
2019-04-14T07:28:07.215Z,13.90
2019-04-14T07:29:07.197Z,14.50
2019-04-14T07:30:07.202Z,15.00
2019-04-14T07:31:07.163Z,14.90
2019-04-14T07:32:07.146Z,14.60
2019-04-14T07:33:07.128Z,13.80
2019-04-14T07:34:07.113Z,14.20
2019-04-14T07:35:07.092Z,13.80
2019-04-14T07:36:07.077Z,14.00
2019-04-14T07:37:07.058Z,13.80
2019-04-14T07:38:07.042Z,14.30
2019-04-14T07:39:07.026Z,14.30
2019-04-14T07:40:07.010Z,13.80
2019-04-14T07:41:06.994Z,14.40
2019-04-14T07:42:06.976Z,14.40
2019-04-14T07:43:06.959Z,14.00
2019-04-14T07:44:06.934Z,14.40
2019-04-14T07:45:06.923Z,14.10
2019-04-14T07:46:06.908Z,13.70
2019-04-14T07:47:06.887Z,14.20
2019-04-14T07:48:06.878Z,14.60
2019-04-14T07:49:06.859Z,14.50
2019-04-14T07:50:14.581Z,13.80
2019-04-14T07:51:06.823Z,14.60
2019-04-14T07:52:06.804Z,14.80
2019-04-14T07:53:06.791Z,14.40
2019-04-14T07:54:06.772Z,14.30
2019-04-14T07:55:06.758Z,15.40
2019-04-14T07:56:06.746Z,16.00
2019-04-14T07:57:06.724Z,15.20
2019-04-14T07:58:06.707Z,14.70
2019-04-14T07:59:06.694Z,15.20
2019-04-14T08:00:06.684Z,15.50
2019-04-14T08:01:06.661Z,14.90
2019-04-14T08:02:06.641Z,15.00
2019-04-14T08:03:06.625Z,15.60
2019-04-14T08:04:06.603Z,15.40
2019-04-14T08:05:06.591Z,16.10
2019-04-14T08:06:06.569Z,16.30
2019-04-14T08:07:06.560Z,15.70
2019-04-14T08:08:06.540Z,15.90
2019-04-14T08:09:06.523Z,15.30
2019-04-14T08:10:06.508Z,15.80
2019-04-14T08:11:06.490Z,15.90
2019-04-14T08:12:06.474Z,16.20
2019-04-14T08:13:06.458Z,15.40
2019-04-14T08:14:06.438Z,16.30
2019-04-14T08:15:06.424Z,16.50
2019-04-14T08:16:06.408Z,15.60
2019-04-14T08:17:06.390Z,16.10
2019-04-14T08:18:06.373Z,16.50
2019-04-14T08:19:06.360Z,16.80
2019-04-14T08:20:06.347Z,15.70
2019-04-14T08:21:06.323Z,16.40
2019-04-14T08:22:06.310Z,15.70
2019-04-14T08:23:06.294Z,17.50
2019-04-14T08:24:06.278Z,17.80
2019-04-14T08:25:06.261Z,16.40
2019-04-14T08:26:06.246Z,17.30
2019-04-14T08:27:06.224Z,16.80
2019-04-14T08:28:06.214Z,16.90
2019-04-14T08:29:06.198Z,17.50
2019-04-14T08:30:06.183Z,17.50
2019-04-14T08:31:06.167Z,16.60
2019-04-14T08:32:06.156Z,17.70
2019-04-14T08:33:06.131Z,17.80
2019-04-14T08:34:06.119Z,17.00
2019-04-14T08:35:06.110Z,16.90
2019-04-14T08:36:06.095Z,18.50
2019-04-14T08:37:06.083Z,18.00
2019-04-14T08:38:06.064Z,17.60
2019-04-14T08:39:06.051Z,18.30
2019-04-14T08:40:06.043Z,18.40
2019-04-14T08:41:06.025Z,17.30
2019-04-14T08:42:06.009Z,17.90
2019-04-14T08:43:05.991Z,17.40
2019-04-14T08:44:05.986Z,17.30
2019-04-14T08:45:05.966Z,17.30
2019-04-14T08:46:05.964Z,18.30
2019-04-14T08:47:05.935Z,19.00
2019-04-14T08:48:05.922Z,19.40
2019-04-14T08:49:05.913Z,19.40
2019-04-14T08:50:05.894Z,18.20
2019-04-14T08:51:05.882Z,18.10
2019-04-14T08:52:05.867Z,19.00
2019-04-14T08:53:05.851Z,19.20
2019-04-14T08:54:05.838Z,18.90
2019-04-14T08:55:05.828Z,20.10
2019-04-14T08:56:05.811Z,19.40
2019-04-14T08:57:05.797Z,19.40
2019-04-14T08:58:05.786Z,20.30
2019-04-14T08:59:05.769Z,19.80
2019-04-14T09:00:05.757Z,19.80
2019-04-14T09:01:05.743Z,20.20
2019-04-14T09:02:05.732Z,20.00
2019-04-14T09:03:05.710Z,20.00
2019-04-14T09:04:05.703Z,20.20
2019-04-14T09:05:05.691Z,19.30
2019-04-14T09:06:05.675Z,20.40
2019-04-14T09:07:05.666Z,20.00
2019-04-14T09:08:05.648Z,19.40
2019-04-14T09:09:07.348Z,19.40
2019-04-14T09:10:05.624Z,20.80
2019-04-14T09:11:05.617Z,21.20
2019-04-14T09:12:15.363Z,20.90
2019-04-14T09:13:05.587Z,20.90
2019-04-14T09:14:05.575Z,20.60
2019-04-14T09:15:05.562Z,20.60
2019-04-14T09:16:05.546Z,20.80
2019-04-14T09:17:05.535Z,20.80
2019-04-14T09:18:05.519Z,21.90
2019-04-14T09:19:07.756Z,21.70
2019-04-14T09:20:05.496Z,22.00
2019-04-14T09:21:05.484Z,22.70
2019-04-14T09:22:05.472Z,23.30
2019-04-14T09:23:05.461Z,22.50
2019-04-14T09:24:05.451Z,23.80
2019-04-14T09:25:05.435Z,22.40
2019-04-14T09:26:05.422Z,24.30
2019-04-14T09:27:05.451Z,23.60
2019-04-14T09:28:05.393Z,24.40
2019-04-14T09:29:05.381Z,25.00
2019-04-14T09:30:05.374Z,24.90
2019-04-14T09:31:05.353Z,24.20
2019-04-14T09:32:05.339Z,23.70
2019-04-14T09:33:05.324Z,24.40
2019-04-14T09:34:05.313Z,23.20
2019-04-14T09:35:05.300Z,24.30
2019-04-14T09:36:05.284Z,24.50
2019-04-14T09:37:05.272Z,23.90
2019-04-14T09:38:05.259Z,23.80
2019-04-14T09:39:05.242Z,25.10
2019-04-14T09:40:05.232Z,25.90
2019-04-14T09:41:05.215Z,24.80
2019-04-14T09:42:05.258Z,24.70
2019-04-14T09:43:05.188Z,24.70
2019-04-14T09:44:05.167Z,24.50
2019-04-14T09:45:05.150Z,24.30
2019-04-14T09:46:05.137Z,25.20
2019-04-14T09:47:05.117Z,24.70
2019-04-14T09:48:05.106Z,25.10
2019-04-14T09:49:05.088Z,26.20
2019-04-14T09:50:05.076Z,25.50
2019-04-14T09:51:05.405Z,26.30
2019-04-14T09:52:05.039Z,26.00
2019-04-14T09:53:05.019Z,26.40
2019-04-14T09:54:05.008Z,24.80
2019-04-14T09:55:04.992Z,24.50
2019-04-14T09:56:04.974Z,24.40
2019-04-14T09:57:04.956Z,24.80
2019-04-14T09:58:04.946Z,24.10
2019-04-14T09:59:04.920Z,25.00
2019-04-14T10:00:04.903Z,23.90
2019-04-14T10:01:04.894Z,24.30
2019-04-14T10:02:04.892Z,24.20
2019-04-14T10:03:04.852Z,24.90
2019-04-14T10:04:04.849Z,25.50
2019-04-14T10:05:04.816Z,25.10
2019-04-14T10:06:04.805Z,25.30
2019-04-14T10:07:04.788Z,24.70
2019-04-14T10:08:04.759Z,24.60
2019-04-14T10:09:04.742Z,25.30
2019-04-14T10:10:04.731Z,25.10
2019-04-14T10:11:04.713Z,24.80
2019-04-14T10:12:11.893Z,25.60
2019-04-14T10:14:04.978Z,25.70
2019-04-14T10:15:04.732Z,25.90
2019-04-14T10:16:50.448Z,23.90
2019-04-14T10:17:57.608Z,25.00
2019-04-14T10:19:43.343Z,25.80
2019-04-14T10:20:43.297Z,25.10
2019-04-14T10:21:43.279Z,24.50
2019-04-14T10:22:43.268Z,25.70
2019-04-14T10:23:43.245Z,25.10
2019-04-14T10:24:43.224Z,25.30
2019-04-14T10:25:43.222Z,26.30
2019-04-14T10:26:43.187Z,25.50
2019-04-14T10:27:43.172Z,25.60
2019-04-14T10:28:43.148Z,25.40
2019-04-14T10:29:43.133Z,26.50
2019-04-14T10:30:43.110Z,26.00
2019-04-14T10:31:43.096Z,26.60
2019-04-14T10:32:43.077Z,26.00
2019-04-14T10:33:43.057Z,24.70
2019-04-14T10:34:43.041Z,24.70
2019-04-14T10:35:43.024Z,24.90
2019-04-14T10:36:43.005Z,24.60
2019-04-14T10:37:42.983Z,25.20
2019-04-14T10:38:42.968Z,24.90
2019-04-14T10:39:42.948Z,25.70
2019-04-14T10:40:42.928Z,25.40
2019-04-14T10:41:42.911Z,25.60
2019-04-14T10:42:42.890Z,25.20
2019-04-14T10:43:42.871Z,24.30
2019-04-14T10:44:42.854Z,24.70
2019-04-14T10:45:42.831Z,24.70
2019-04-14T10:46:42.814Z,24.50
2019-04-14T10:47:42.794Z,23.60
2019-04-14T10:48:42.774Z,23.40
2019-04-14T10:49:42.757Z,24.10
2019-04-14T10:50:42.734Z,23.40
2019-04-14T10:51:42.716Z,24.50
2019-04-14T10:52:42.695Z,23.60
2019-04-14T10:53:42.674Z,23.90
2019-04-14T10:54:42.650Z,24.00
2019-04-14T10:55:42.635Z,23.80
2019-04-14T10:56:42.609Z,23.80
2019-04-14T10:57:42.590Z,24.00
2019-04-14T10:58:42.572Z,22.90
2019-04-14T10:59:42.554Z,22.20
2019-04-14T11:00:42.528Z,22.70
2019-04-14T11:01:42.513Z,22.50
2019-04-14T11:02:42.489Z,22.30
2019-04-14T11:03:42.472Z,22.20
2019-04-14T11:04:42.442Z,21.80
2019-04-14T11:05:42.502Z,21.50
2019-04-14T11:06:42.482Z,20.30
2019-04-14T11:07:42.454Z,20.90
2019-04-14T11:08:42.430Z,21.90
2019-04-14T11:09:42.414Z,21.30
2019-04-14T11:10:42.315Z,20.80
2019-04-14T11:11:42.295Z,20.20
2019-04-14T11:12:42.351Z,20.90
2019-04-14T11:13:42.319Z,20.00
2019-04-14T11:14:42.306Z,20.00
2019-04-14T11:15:42.278Z,20.00
2019-04-14T11:16:42.257Z,20.70
2019-04-14T11:17:42.232Z,19.50
2019-04-14T11:18:42.215Z,19.50
2019-04-14T11:19:42.119Z,19.50
2019-04-14T11:20:42.100Z,17.90
2019-04-14T11:21:43.114Z,19.30
2019-04-14T11:22:42.054Z,20.10
2019-04-14T11:23:42.028Z,19.80
2019-04-14T11:24:42.001Z,19.00
2019-04-14T11:25:41.984Z,20.00
2019-04-14T11:26:41.960Z,20.00
2019-04-14T11:27:41.947Z,20.40
2019-04-14T11:28:41.917Z,20.80
2019-04-14T11:29:41.895Z,19.70
2019-04-14T11:30:41.872Z,19.80
2019-04-14T11:31:41.849Z,20.50
2019-04-14T11:32:41.828Z,20.40
2019-04-14T11:33:41.804Z,19.90
2019-04-14T11:34:41.782Z,20.60
2019-04-14T11:35:41.758Z,19.60
2019-04-14T11:36:41.754Z,19.90
2019-04-14T11:37:41.721Z,19.90
2019-04-14T11:38:41.702Z,20.60
2019-04-14T11:39:41.664Z,20.30
2019-04-14T11:40:41.648Z,19.30
2019-04-14T11:41:41.620Z,19.40
2019-04-14T11:42:51.795Z,20.00
2019-04-14T11:43:41.580Z,20.40
2019-04-14T11:44:41.569Z,19.60
2019-04-14T11:45:41.531Z,18.90
2019-04-14T11:46:41.509Z,19.10
2019-04-14T11:47:41.484Z,19.60
2019-04-14T11:48:41.461Z,19.70
2019-04-14T11:49:41.459Z,19.70
2019-04-14T11:50:41.417Z,19.20
2019-04-14T11:51:41.392Z,18.70
2019-04-14T11:52:41.373Z,18.20
2019-04-14T11:53:41.358Z,18.20
2019-04-14T11:54:41.324Z,18.60
2019-04-14T11:55:41.304Z,18.40
2019-04-14T11:56:41.283Z,17.60
2019-04-14T11:57:41.259Z,17.50
2019-04-14T11:58:41.242Z,16.90
2019-04-14T11:59:41.209Z,16.60
2019-04-14T12:00:41.185Z,16.10
2019-04-14T12:01:41.162Z,15.70
2019-04-14T12:02:41.141Z,15.20
2019-04-14T12:03:41.119Z,15.30
2019-04-14T12:04:41.104Z,16.60
2019-04-14T12:05:41.070Z,16.30
2019-04-14T12:06:41.049Z,17.30
2019-04-14T12:07:41.028Z,18.20
2019-04-14T12:08:40.999Z,17.50
2019-04-14T12:09:40.979Z,17.80
2019-04-14T12:10:40.955Z,18.40
2019-04-14T12:11:40.926Z,18.10
2019-04-14T12:12:40.908Z,16.90
2019-04-14T12:13:40.884Z,17.20
2019-04-14T12:14:40.865Z,16.70
2019-04-14T12:15:40.838Z,17.50
2019-04-14T12:16:40.812Z,18.50
2019-04-14T12:17:40.782Z,18.40
2019-04-14T12:18:40.764Z,18.40
2019-04-14T12:19:40.742Z,17.90
2019-04-14T12:20:40.718Z,18.40
2019-04-14T12:21:40.699Z,17.50
2019-04-14T12:22:40.674Z,17.70
2019-04-14T12:23:40.645Z,17.10
2019-04-14T12:24:40.622Z,17.40
2019-04-14T12:25:40.601Z,16.70
2019-04-14T12:26:40.569Z,17.50
2019-04-14T12:27:40.550Z,16.80
2019-04-14T12:28:40.551Z,16.20
2019-04-14T12:29:41.218Z,16.00
2019-04-14T12:30:40.477Z,17.20
2019-04-14T12:31:40.450Z,17.60
2019-04-14T12:32:40.430Z,17.50
2019-04-14T12:33:40.409Z,18.20
2019-04-14T12:34:40.377Z,17.00
2019-04-14T12:35:40.361Z,18.10
2019-04-14T12:36:40.333Z,19.30
2019-04-14T12:37:40.312Z,19.50
2019-04-14T12:38:40.286Z,19.30
2019-04-14T12:39:40.261Z,18.10
2019-04-14T12:40:40.290Z,19.60
2019-04-14T12:41:40.211Z,18.60
2019-04-14T12:42:40.191Z,18.10
2019-04-14T12:43:40.165Z,18.30
2019-04-14T12:44:40.144Z,17.90
2019-04-14T12:45:40.115Z,17.70
2019-04-14T12:46:40.103Z,16.70
2019-04-14T12:47:40.589Z,16.50
2019-04-14T12:48:40.045Z,15.70
2019-04-14T12:49:40.023Z,15.60
2019-04-14T12:50:39.999Z,15.70
2019-04-14T12:51:39.974Z,15.90
2019-04-14T12:52:39.947Z,16.00
2019-04-14T12:53:39.929Z,15.20
2019-04-14T12:54:39.902Z,15.70
2019-04-14T12:55:39.878Z,14.90
2019-04-14T12:56:39.861Z,15.70
2019-04-14T12:57:39.833Z,15.70
2019-04-14T12:58:39.806Z,16.10
2019-04-14T12:59:39.786Z,15.00
2019-04-14T13:00:39.762Z,14.90
2019-04-14T13:01:39.742Z,15.20
2019-04-14T13:02:39.740Z,14.60
2019-04-14T13:03:41.926Z,15.20
2019-04-14T13:04:39.672Z,13.50
2019-04-14T13:05:39.643Z,14.40
2019-04-14T13:06:39.620Z,13.70
2019-04-14T13:07:39.611Z,13.10
2019-04-14T13:08:39.569Z,17.60
2019-04-14T13:09:39.621Z,14.00
2019-04-14T13:10:39.529Z,14.20
2019-04-14T13:11:39.508Z,13.30
2019-04-14T13:12:39.486Z,12.90
2019-04-14T13:13:39.461Z,13.40
2019-04-14T13:14:39.445Z,13.10